createdAt,value
2018-10-06T00:00:41.808Z,1009.99
2018-10-06T00:01:41.833Z,1009.98
2018-10-06T00:02:41.847Z,1010.00
2018-10-06T00:03:41.868Z,1009.96
2018-10-06T00:04:41.886Z,1009.93
2018-10-06T00:05:41.901Z,1009.88
2018-10-06T00:06:41.915Z,1009.90
2018-10-06T00:07:41.928Z,1009.86
2018-10-06T00:08:41.941Z,1009.86
2018-10-06T00:09:41.966Z,1009.81
2018-10-06T00:10:41.984Z,1009.81
2018-10-06T00:11:41.995Z,1009.80
2018-10-06T00:12:42.009Z,1009.75
2018-10-06T00:13:42.023Z,1009.80
2018-10-06T00:14:42.046Z,1009.73
2018-10-06T00:15:42.061Z,1009.70
2018-10-06T00:16:42.076Z,1009.72
2018-10-06T00:17:42.089Z,1009.72
2018-10-06T00:18:42.114Z,1009.72
2018-10-06T00:19:42.127Z,1009.72
2018-10-06T00:20:42.176Z,1009.70
2018-10-06T00:21:42.155Z,1009.67
2018-10-06T00:22:42.172Z,1009.70
2018-10-06T00:23:42.195Z,1009.70
2018-10-06T00:24:42.208Z,1009.71
2018-10-06T00:25:42.223Z,1009.69
2018-10-06T00:26:42.235Z,1009.67
2018-10-06T00:27:42.260Z,1009.67
2018-10-06T00:28:42.275Z,1009.64
2018-10-06T00:29:42.290Z,1009.68
2018-10-06T00:30:42.303Z,1009.66
2018-10-06T00:31:42.314Z,1009.68
2018-10-06T00:32:42.341Z,1009.66
2018-10-06T00:33:42.355Z,1009.70
2018-10-06T00:34:42.368Z,1009.69
2018-10-06T00:35:42.383Z,1009.70
2018-10-06T00:36:42.395Z,1009.73
2018-10-06T00:37:42.421Z,1009.68
2018-10-06T00:38:42.440Z,1009.68
2018-10-06T00:39:42.461Z,1009.65
2018-10-06T00:40:42.464Z,1009.59
2018-10-06T00:41:42.476Z,1009.62
2018-10-06T00:42:42.501Z,1009.57
2018-10-06T00:43:42.519Z,1009.58
2018-10-06T00:44:42.528Z,1009.54
2018-10-06T00:45:42.554Z,1009.53
2018-10-06T00:46:42.557Z,1009.49
2018-10-06T00:47:42.595Z,1009.52
2018-10-06T00:48:42.596Z,1009.49
2018-10-06T00:49:42.608Z,1009.44
2018-10-06T00:50:42.622Z,1009.44
2018-10-06T00:51:42.650Z,1009.45
2018-10-06T00:52:42.662Z,1009.42
2018-10-06T00:53:42.676Z,1009.40
2018-10-06T00:54:42.688Z,1009.42
2018-10-06T00:55:42.705Z,1009.42
2018-10-06T00:56:42.729Z,1009.40
2018-10-06T00:57:42.742Z,1009.38
2018-10-06T00:58:42.756Z,1009.40
2018-10-06T00:59:42.781Z,1009.39
2018-10-06T01:00:42.783Z,1009.39
2018-10-06T01:01:42.808Z,1009.37
2018-10-06T01:02:42.821Z,1009.38
2018-10-06T01:03:42.836Z,1009.36
2018-10-06T01:04:42.848Z,1009.34
2018-10-06T01:05:42.867Z,1009.35
2018-10-06T01:06:42.889Z,1009.30
2018-10-06T01:07:42.902Z,1009.30
2018-10-06T01:08:42.916Z,1009.37
2018-10-06T01:09:42.929Z,1009.34
2018-10-06T01:10:42.943Z,1009.32
2018-10-06T01:11:42.970Z,1009.30
2018-10-06T01:12:42.982Z,1009.31
2018-10-06T01:13:42.999Z,1009.26
2018-10-06T01:14:43.016Z,1009.18
2018-10-06T01:15:43.023Z,1009.17
2018-10-06T01:16:43.049Z,1009.18
2018-10-06T01:17:43.062Z,1009.13
2018-10-06T01:18:43.077Z,1009.17
2018-10-06T01:19:43.089Z,1009.15
2018-10-06T01:20:43.115Z,1009.11
2018-10-06T01:21:43.130Z,1009.08
2018-10-06T01:22:43.142Z,1009.06
2018-10-06T01:23:43.157Z,1009.10
2018-10-06T01:24:43.169Z,1009.07
2018-10-06T01:25:43.196Z,1009.06
2018-10-06T01:26:43.209Z,1009.05
2018-10-06T01:27:43.222Z,1009.06
2018-10-06T01:28:43.237Z,1009.11
2018-10-06T01:29:43.250Z,1009.09
2018-10-06T01:30:43.275Z,1009.13
2018-10-06T01:31:43.290Z,1009.08
2018-10-06T01:32:43.316Z,1009.08
2018-10-06T01:33:43.316Z,1009.03
2018-10-06T01:34:43.333Z,1009.11
2018-10-06T01:35:43.356Z,1009.10
2018-10-06T01:36:43.371Z,1009.12
2018-10-06T01:37:43.383Z,1009.09
2018-10-06T01:38:43.398Z,1009.11
2018-10-06T01:39:43.409Z,1009.07
2018-10-06T01:40:43.448Z,1009.09
2018-10-06T01:41:43.450Z,1009.07
2018-10-06T01:42:43.464Z,1009.06
2018-10-06T01:43:43.477Z,1009.06
2018-10-06T01:44:43.489Z,1009.04
2018-10-06T01:45:43.516Z,1009.05
2018-10-06T01:46:43.533Z,1009.01
2018-10-06T01:47:43.544Z,1008.99
2018-10-06T01:48:43.558Z,1009.00
2018-10-06T01:49:43.628Z,1009.00
2018-10-06T01:50:43.596Z,1008.98
2018-10-06T01:51:43.611Z,1008.97
2018-10-06T01:52:43.623Z,1009.02
2018-10-06T01:53:43.637Z,1008.98
2018-10-06T01:54:43.649Z,1008.98
2018-10-06T01:55:43.676Z,1008.97
2018-10-06T01:56:43.690Z,1008.99
2018-10-06T01:57:43.706Z,1008.98
2018-10-06T01:58:43.717Z,1008.91
2018-10-06T01:59:43.730Z,1008.93
2018-10-06T02:00:43.755Z,1008.92
2018-10-06T02:01:43.770Z,1008.88
2018-10-06T02:02:43.785Z,1008.91
2018-10-06T02:03:43.797Z,1008.83
2018-10-06T02:04:43.811Z,1008.84
2018-10-06T02:05:43.836Z,1008.88
2018-10-06T02:06:43.850Z,1008.85
2018-10-06T02:07:43.863Z,1008.83
2018-10-06T02:08:43.878Z,1008.84
2018-10-06T02:09:43.890Z,1008.81
2018-10-06T02:10:43.917Z,1008.80
2018-10-06T02:11:43.931Z,1008.80
2018-10-06T02:12:43.943Z,1008.75
2018-10-06T02:13:43.957Z,1008.74
2018-10-06T02:14:43.984Z,1008.76
2018-10-06T02:15:43.996Z,1008.77
2018-10-06T02:16:44.013Z,1008.74
2018-10-06T02:17:44.024Z,1008.72
2018-10-06T02:18:44.037Z,1008.72
2018-10-06T02:19:44.050Z,1008.72
2018-10-06T02:20:44.076Z,1008.75
2018-10-06T02:21:44.090Z,1008.74
2018-10-06T02:22:44.104Z,1008.70
2018-10-06T02:23:44.119Z,1008.72
2018-10-06T02:24:44.132Z,1008.73
2018-10-06T02:25:44.146Z,1008.70
2018-10-06T02:26:44.171Z,1008.69
2018-10-06T02:27:44.183Z,1008.66
2018-10-06T02:28:44.202Z,1008.65
2018-10-06T02:29:44.210Z,1008.61
2018-10-06T02:30:44.227Z,1008.57
2018-10-06T02:31:44.252Z,1008.52
2018-10-06T02:32:44.264Z,1008.57
2018-10-06T02:33:44.278Z,1008.57
2018-10-06T02:34:44.303Z,1008.55
2018-10-06T02:35:44.305Z,1008.57
2018-10-06T02:36:44.322Z,1008.56
2018-10-06T02:37:44.345Z,1008.55
2018-10-06T02:38:44.359Z,1008.49
2018-10-06T02:39:44.373Z,1008.48
2018-10-06T02:40:44.389Z,1008.46
2018-10-06T02:41:44.399Z,1008.44
2018-10-06T02:42:44.424Z,1008.47
2018-10-06T02:43:44.439Z,1008.45
2018-10-06T02:44:44.452Z,1008.43
2018-10-06T02:45:44.466Z,1008.38
2018-10-06T02:46:44.480Z,1008.39
2018-10-06T02:47:44.494Z,1008.36
2018-10-06T02:48:44.518Z,1008.38
2018-10-06T02:49:44.532Z,1008.37
2018-10-06T02:50:44.545Z,1008.40
2018-10-06T02:51:44.558Z,1008.38
2018-10-06T02:52:44.573Z,1008.39
2018-10-06T02:53:44.599Z,1008.36
2018-10-06T02:54:44.612Z,1008.35
2018-10-06T02:55:44.626Z,1008.33
2018-10-06T02:56:44.639Z,1008.33
2018-10-06T02:57:44.715Z,1008.29
2018-10-06T02:58:44.666Z,1008.32
2018-10-06T02:59:44.692Z,1008.31
2018-10-06T03:00:44.707Z,1008.29
2018-10-06T03:01:44.719Z,1008.30
2018-10-06T03:02:44.733Z,1008.30
2018-10-06T03:03:44.746Z,1008.28
2018-10-06T03:04:44.771Z,1008.32
2018-10-06T03:05:44.791Z,1008.26
2018-10-06T03:06:44.799Z,1008.23
2018-10-06T03:07:44.813Z,1008.21
2018-10-06T03:08:44.840Z,1008.19
2018-10-06T03:09:44.843Z,1008.13
2018-10-06T03:10:44.854Z,1008.13
2018-10-06T03:11:44.880Z,1008.15
2018-10-06T03:12:44.893Z,1008.11
2018-10-06T03:13:44.907Z,1008.16
2018-10-06T03:14:44.920Z,1008.14
2018-10-06T03:15:44.935Z,1008.13
2018-10-06T03:16:44.961Z,1008.11
2018-10-06T03:17:44.973Z,1008.17
2018-10-06T03:18:44.986Z,1008.12
2018-10-06T03:19:45.001Z,1008.12
2018-10-06T03:20:45.013Z,1008.12
2018-10-06T03:21:45.029Z,1008.08
2018-10-06T03:22:45.056Z,1008.12
2018-10-06T03:23:45.068Z,1008.08
2018-10-06T03:24:45.081Z,1008.06
2018-10-06T03:25:45.094Z,1008.06
2018-10-06T03:26:45.107Z,1008.05
2018-10-06T03:27:45.121Z,1008.09
2018-10-06T03:28:45.164Z,1008.03
2018-10-06T03:29:45.161Z,1008.06
2018-10-06T03:30:45.173Z,1008.03
2018-10-06T03:31:45.188Z,1008.00
2018-10-06T03:32:45.200Z,1007.99
2018-10-06T03:33:45.227Z,1007.99
2018-10-06T03:34:45.245Z,1008.00
2018-10-06T03:35:45.254Z,1007.99
2018-10-06T03:36:45.268Z,1007.97
2018-10-06T03:37:45.280Z,1007.94
2018-10-06T03:38:45.296Z,1007.95
2018-10-06T03:39:45.321Z,1007.92
2018-10-06T03:40:45.335Z,1007.93
2018-10-06T03:41:45.347Z,1007.91
2018-10-06T03:42:45.360Z,1007.87
2018-10-06T03:43:45.375Z,1007.92
2018-10-06T03:44:45.389Z,1007.92
2018-10-06T03:45:45.414Z,1007.88
2018-10-06T03:46:45.428Z,1007.93
2018-10-06T03:47:45.442Z,1007.91
2018-10-06T03:48:45.454Z,1007.89
2018-10-06T03:49:45.468Z,1007.89
2018-10-06T03:50:45.482Z,1007.88
2018-10-06T03:51:45.508Z,1007.85
2018-10-06T03:52:45.521Z,1007.86
2018-10-06T03:53:45.541Z,1007.82
2018-10-06T03:54:45.549Z,1007.83
2018-10-06T03:55:45.562Z,1007.79
2018-10-06T03:56:45.576Z,1007.80
2018-10-06T03:57:45.601Z,1007.79
2018-10-06T03:58:45.616Z,1007.79
2018-10-06T03:59:45.629Z,1007.82
2018-10-06T04:00:45.641Z,1007.79
2018-10-06T04:01:45.656Z,1007.75
2018-10-06T04:02:45.685Z,1007.77
2018-10-06T04:03:45.695Z,1007.71
2018-10-06T04:04:45.709Z,1007.70
2018-10-06T04:05:45.725Z,1007.71
2018-10-06T04:06:45.737Z,1007.69
2018-10-06T04:07:45.753Z,1007.71
2018-10-06T04:08:45.775Z,1007.71
2018-10-06T04:09:45.789Z,1007.71
2018-10-06T04:10:45.803Z,1007.73
2018-10-06T04:11:45.816Z,1007.71
2018-10-06T04:12:45.830Z,1007.71
2018-10-06T04:13:45.842Z,1007.68
2018-10-06T04:14:45.882Z,1007.66
2018-10-06T04:15:45.883Z,1007.67
2018-10-06T04:16:45.895Z,1007.66
2018-10-06T04:17:45.910Z,1007.67
2018-10-06T04:18:45.922Z,1007.65
2018-10-06T04:19:45.937Z,1007.63
2018-10-06T04:20:45.965Z,1007.64
2018-10-06T04:21:45.975Z,1007.69
2018-10-06T04:22:45.990Z,1007.67
2018-10-06T04:23:46.005Z,1007.65
2018-10-06T04:24:46.017Z,1007.71
2018-10-06T04:25:46.029Z,1007.69
2018-10-06T04:26:46.055Z,1007.67
2018-10-06T04:27:46.075Z,1007.67
2018-10-06T04:28:46.083Z,1007.69
2018-10-06T04:29:46.102Z,1007.69
2018-10-06T04:30:46.109Z,1007.70
2018-10-06T04:31:46.128Z,1007.69
2018-10-06T04:32:46.151Z,1007.67
2018-10-06T04:33:46.165Z,1007.66
2018-10-06T04:34:46.177Z,1007.69
2018-10-06T04:35:46.203Z,1007.67
2018-10-06T04:36:46.204Z,1007.62
2018-10-06T04:37:46.220Z,1007.60
2018-10-06T04:38:46.232Z,1007.59
2018-10-06T04:39:46.258Z,1007.64
2018-10-06T04:40:46.270Z,1007.57
2018-10-06T04:41:46.287Z,1007.57
2018-10-06T04:42:46.298Z,1007.58
2018-10-06T04:43:46.312Z,1007.58
2018-10-06T04:44:46.339Z,1007.59
2018-10-06T04:45:46.351Z,1007.60
2018-10-06T04:46:46.364Z,1007.57
2018-10-06T04:47:46.377Z,1007.56
2018-10-06T04:48:46.392Z,1007.52
2018-10-06T04:49:46.405Z,1007.46
2018-10-06T04:50:46.432Z,1007.46
2018-10-06T04:51:46.445Z,1007.43
2018-10-06T04:52:46.458Z,1007.46
2018-10-06T04:53:46.472Z,1007.45
2018-10-06T04:54:46.484Z,1007.44
2018-10-06T04:55:46.499Z,1007.43
2018-10-06T04:56:46.525Z,1007.45
2018-10-06T04:57:46.538Z,1007.47
2018-10-06T04:58:46.553Z,1007.44
2018-10-06T04:59:46.564Z,1007.49
2018-10-06T05:00:46.580Z,1007.41
2018-10-06T05:01:46.592Z,1007.42
2018-10-06T05:02:46.617Z,1007.40
2018-10-06T05:03:46.633Z,1007.39
2018-10-06T05:04:46.645Z,1007.39
2018-10-06T05:05:46.659Z,1007.40
2018-10-06T05:06:46.673Z,1007.38
2018-10-06T05:07:46.697Z,1007.36
2018-10-06T05:08:46.712Z,1007.38
2018-10-06T05:09:46.740Z,1007.37
2018-10-06T05:10:46.739Z,1007.35
2018-10-06T05:11:46.751Z,1007.33
2018-10-06T05:12:46.767Z,1007.35
2018-10-06T05:13:46.792Z,1007.35
2018-10-06T05:14:46.807Z,1007.34
2018-10-06T05:15:46.820Z,1007.33
2018-10-06T05:16:46.832Z,1007.36
2018-10-06T05:17:46.846Z,1007.36
2018-10-06T05:18:46.861Z,1007.33
2018-10-06T05:19:46.885Z,1007.31
2018-10-06T05:20:46.913Z,1007.34
2018-10-06T05:21:46.913Z,1007.30
2018-10-06T05:22:46.927Z,1007.31
2018-10-06T05:23:46.941Z,1007.35
2018-10-06T05:24:46.955Z,1007.35
2018-10-06T05:25:46.979Z,1007.37
2018-10-06T05:26:46.992Z,1007.37
2018-10-06T05:27:47.008Z,1007.40
2018-10-06T05:28:47.023Z,1007.41
2018-10-06T05:29:47.036Z,1007.39
2018-10-06T05:30:47.059Z,1007.34
2018-10-06T05:31:47.074Z,1007.37
2018-10-06T05:32:47.088Z,1007.36
2018-10-06T05:33:47.138Z,1007.29
2018-10-06T05:34:47.115Z,1007.34
2018-10-06T05:35:47.127Z,1007.31
2018-10-06T05:36:47.159Z,1007.31
2018-10-06T05:37:47.167Z,1007.31
2018-10-06T05:38:47.181Z,1007.32
2018-10-06T05:39:47.195Z,1007.31
2018-10-06T05:40:47.207Z,1007.29
2018-10-06T05:41:47.221Z,1007.33
2018-10-06T05:42:47.248Z,1007.30
2018-10-06T05:43:47.261Z,1007.33
2018-10-06T05:44:47.275Z,1007.29
2018-10-06T05:45:47.288Z,1007.29
2018-10-06T05:46:47.302Z,1007.29
2018-10-06T05:47:47.316Z,1007.29
2018-10-06T05:48:47.342Z,1007.33
2018-10-06T05:49:47.354Z,1007.31
2018-10-06T05:50:47.367Z,1007.31
2018-10-06T05:51:47.382Z,1007.31
2018-10-06T05:52:47.395Z,1007.31
2018-10-06T05:53:47.425Z,1007.30
2018-10-06T05:54:47.435Z,1007.26
2018-10-06T05:55:47.447Z,1007.24
2018-10-06T05:56:47.463Z,1007.28
2018-10-06T05:57:47.475Z,1007.32
2018-10-06T05:58:47.500Z,1007.28
2018-10-06T05:59:47.515Z,1007.31
2018-10-06T06:00:47.528Z,1007.31
2018-10-06T06:01:47.542Z,1007.31
2018-10-06T06:02:47.554Z,1007.31
2018-10-06T06:03:47.569Z,1007.29
2018-10-06T06:04:47.594Z,1007.35
2018-10-06T06:05:47.608Z,1007.34
2018-10-06T06:06:47.623Z,1007.32
2018-10-06T06:07:47.635Z,1007.28
2018-10-06T06:08:47.650Z,1007.29
2018-10-06T06:09:47.692Z,1007.27
2018-10-06T06:10:47.688Z,1007.30
2018-10-06T06:11:47.701Z,1007.28
2018-10-06T06:12:47.715Z,1007.29
2018-10-06T06:13:47.729Z,1007.27
2018-10-06T06:14:47.755Z,1007.26
2018-10-06T06:15:47.833Z,1007.24
2018-10-06T06:16:47.782Z,1007.22
2018-10-06T06:17:47.796Z,1007.19
2018-10-06T06:18:47.810Z,1007.19
2018-10-06T06:19:47.835Z,1007.18
2018-10-06T06:20:47.849Z,1007.17
2018-10-06T06:21:47.862Z,1007.12
2018-10-06T06:22:47.897Z,1007.16
2018-10-06T06:23:47.956Z,1007.18
2018-10-06T06:24:47.915Z,1007.14
2018-10-06T06:25:47.929Z,1007.10
2018-10-06T06:26:47.942Z,1007.15
2018-10-06T06:27:47.968Z,1007.09
2018-10-06T06:28:48.021Z,1007.05
2018-10-06T06:29:47.998Z,1007.02
2018-10-06T06:30:48.024Z,1006.99
2018-10-06T06:31:48.022Z,1006.97
2018-10-06T06:32:48.052Z,1007.03
2018-10-06T06:33:48.062Z,1006.99
2018-10-06T06:34:48.079Z,1007.08
2018-10-06T06:35:48.101Z,1007.07
2018-10-06T06:36:48.102Z,1007.16
2018-10-06T06:37:48.129Z,1007.19
2018-10-06T06:38:48.142Z,1007.18
2018-10-06T06:39:48.157Z,1007.20
2018-10-06T06:40:48.168Z,1007.21
2018-10-06T06:41:48.198Z,1007.19
2018-10-06T06:42:48.209Z,1007.17
2018-10-06T06:43:48.279Z,1007.22
2018-10-06T06:44:48.236Z,1007.20
2018-10-06T06:45:48.262Z,1007.17
2018-10-06T06:46:48.276Z,1007.21
2018-10-06T06:47:48.288Z,1007.21
2018-10-06T06:48:48.302Z,1007.22
2018-10-06T06:49:48.328Z,1007.25
2018-10-06T06:50:48.341Z,1007.22
2018-10-06T06:51:48.355Z,1007.26
2018-10-06T06:52:48.371Z,1007.27
2018-10-06T06:53:48.395Z,1007.23
2018-10-06T06:54:48.463Z,1007.26
2018-10-06T06:55:48.423Z,1007.25
2018-10-06T06:56:48.438Z,1007.23
2018-10-06T06:57:48.460Z,1007.19
2018-10-06T06:58:48.475Z,1007.21
2018-10-06T06:59:48.488Z,1007.20
2018-10-06T07:00:48.503Z,1007.19
2018-10-06T07:01:48.529Z,1007.18
2018-10-06T07:02:48.540Z,1007.16
2018-10-06T07:03:48.555Z,1007.13
2018-10-06T07:04:48.581Z,1007.15
2018-10-06T07:05:48.621Z,1007.14
2018-10-06T07:06:48.608Z,1007.18
2018-10-06T07:07:48.621Z,1007.12
2018-10-06T07:08:48.649Z,1007.16
2018-10-06T07:09:48.663Z,1007.12
2018-10-06T07:10:48.674Z,1007.06
2018-10-06T07:11:48.688Z,1007.08
2018-10-06T07:12:48.716Z,1007.07
2018-10-06T07:13:48.728Z,1007.08
2018-10-06T07:14:48.742Z,1007.11
2018-10-06T07:15:48.767Z,1007.12
2018-10-06T07:16:48.780Z,1007.12
2018-10-06T07:17:48.795Z,1007.15
2018-10-06T07:18:48.820Z,1007.16
2018-10-06T07:19:48.837Z,1007.14
2018-10-06T07:20:48.848Z,1007.15
2018-10-06T07:21:48.873Z,1007.12
2018-10-06T07:22:48.887Z,1007.12
2018-10-06T07:23:48.900Z,1007.13
2018-10-06T07:24:48.914Z,1007.12
2018-10-06T07:25:48.939Z,1007.15
2018-10-06T07:26:48.956Z,1007.13
2018-10-06T07:27:48.967Z,1007.10
2018-10-06T07:28:48.994Z,1007.08
2018-10-06T07:29:49.008Z,1007.11
2018-10-06T07:30:49.021Z,1007.07
2018-10-06T07:31:49.048Z,1007.10
2018-10-06T07:32:49.060Z,1007.07
2018-10-06T07:33:49.080Z,1007.08
2018-10-06T07:34:49.099Z,1007.05
2018-10-06T07:35:49.113Z,1007.03
2018-10-06T07:36:49.128Z,1007.01
2018-10-06T07:37:49.152Z,1007.01
2018-10-06T07:38:49.166Z,1007.02
2018-10-06T07:39:49.180Z,1007.01
2018-10-06T07:40:49.205Z,1006.96
2018-10-06T07:41:49.220Z,1006.93
2018-10-06T07:42:49.245Z,1006.96
2018-10-06T07:43:49.259Z,1006.92
2018-10-06T07:44:49.329Z,1006.93
2018-10-06T07:45:49.298Z,1006.90
2018-10-06T07:46:49.312Z,1006.84
2018-10-06T07:47:49.326Z,1006.89
2018-10-06T07:48:49.353Z,1006.82
2018-10-06T07:49:49.365Z,1006.84
2018-10-06T07:50:49.378Z,1006.76
2018-10-06T07:51:49.405Z,1006.78
2018-10-06T07:52:49.417Z,1006.82
2018-10-06T07:53:49.443Z,1006.87
2018-10-06T07:54:49.457Z,1006.83
2018-10-06T07:55:49.472Z,1006.88
2018-10-06T07:56:49.565Z,1006.89
2018-10-06T07:57:49.514Z,1006.85
2018-10-06T07:58:49.527Z,1006.88
2018-10-06T07:59:49.550Z,1006.85
2018-10-06T08:00:49.564Z,1006.80
2018-10-06T08:01:49.591Z,1006.83
2018-10-06T08:02:49.603Z,1006.84
2018-10-06T08:03:49.619Z,1006.83
2018-10-06T08:04:49.648Z,1006.83
2018-10-06T08:05:49.656Z,1006.81
2018-10-06T08:06:49.682Z,1006.84
2018-10-06T08:07:49.700Z,1006.82
2018-10-06T08:08:49.710Z,1006.80
2018-10-06T08:09:49.735Z,1006.80
2018-10-06T08:10:49.748Z,1006.85
2018-10-06T08:11:49.775Z,1006.86
2018-10-06T08:12:49.788Z,1006.86
2018-10-06T08:13:49.827Z,1006.88
2018-10-06T08:14:49.829Z,1006.86
2018-10-06T08:15:49.841Z,1006.85
2018-10-06T08:16:49.880Z,1006.73
2018-10-06T08:17:49.880Z,1006.72
2018-10-06T08:18:49.907Z,1006.72
2018-10-06T08:19:49.921Z,1006.68
2018-10-06T08:20:49.933Z,1006.65
2018-10-06T08:21:49.960Z,1006.67
2018-10-06T08:22:49.974Z,1006.66
2018-10-06T08:23:50.015Z,1006.72
2018-10-06T08:24:50.014Z,1006.73
2018-10-06T08:25:50.042Z,1006.69
2018-10-06T08:26:50.052Z,1006.73
2018-10-06T08:27:50.071Z,1006.75
2018-10-06T08:28:50.096Z,1006.79
2018-10-06T08:29:50.105Z,1006.80
2018-10-06T08:30:50.131Z,1006.79
2018-10-06T08:31:50.145Z,1006.71
2018-10-06T08:32:50.174Z,1006.71
2018-10-06T08:33:50.184Z,1006.68
2018-10-06T08:34:50.209Z,1006.64
2018-10-06T08:35:50.224Z,1006.66
2018-10-06T08:36:50.250Z,1006.61
2018-10-06T08:37:50.264Z,1006.67
2018-10-06T08:38:50.289Z,1006.66
2018-10-06T08:39:50.304Z,1006.68
2018-10-06T08:40:50.331Z,1006.61
2018-10-06T08:41:50.355Z,1006.59
2018-10-06T08:42:50.433Z,1006.61
2018-10-06T08:43:50.384Z,1006.56
2018-10-06T08:44:50.396Z,1006.57
2018-10-06T08:45:50.421Z,1006.55
2018-10-06T08:46:50.436Z,1006.48
2018-10-06T08:47:50.461Z,1006.50
2018-10-06T08:48:50.476Z,1006.48
2018-10-06T08:49:50.565Z,1006.48
2018-10-06T08:50:50.515Z,1006.46
2018-10-06T08:51:50.541Z,1006.47
2018-10-06T08:52:50.555Z,1006.45
2018-10-06T08:53:50.579Z,1006.44
2018-10-06T08:54:50.594Z,1006.49
2018-10-06T08:55:50.757Z,1006.52
2018-10-06T08:56:50.647Z,1006.50
2018-10-06T08:57:50.861Z,1006.52
2018-10-06T08:58:50.684Z,1006.48
2018-10-06T08:59:50.699Z,1006.48
2018-10-06T09:00:50.725Z,1006.46
2018-10-06T09:01:50.739Z,1006.48
2018-10-06T09:02:50.765Z,1006.48
2018-10-06T09:03:50.778Z,1006.48
2018-10-06T09:04:50.805Z,1006.46
2018-10-06T09:05:50.817Z,1006.41
2018-10-06T09:06:50.843Z,1006.46
2018-10-06T09:07:50.858Z,1006.41
2018-10-06T09:08:50.883Z,1006.37
2018-10-06T09:09:50.897Z,1006.41
2018-10-06T09:10:50.974Z,1006.38
2018-10-06T09:11:50.948Z,1006.37
2018-10-06T09:12:50.963Z,1006.31
2018-10-06T09:13:50.989Z,1006.35
2018-10-06T09:14:51.001Z,1006.37
2018-10-06T09:15:51.030Z,1006.31
2018-10-06T09:16:51.041Z,1006.32
2018-10-06T09:17:51.113Z,1006.30
2018-10-06T09:18:51.081Z,1006.24
2018-10-06T09:19:51.105Z,1006.25
2018-10-06T09:20:51.132Z,1006.26
2018-10-06T09:21:51.146Z,1006.25
2018-10-06T09:22:51.172Z,1006.26
2018-10-06T09:23:51.185Z,1006.22
2018-10-06T09:24:51.225Z,1006.22
2018-10-06T09:25:51.229Z,1006.20
2018-10-06T09:26:51.251Z,1006.26
2018-10-06T09:27:51.265Z,1006.27
2018-10-06T09:28:51.290Z,1006.23
2018-10-06T09:29:51.318Z,1006.21
2018-10-06T09:30:51.331Z,1006.15
2018-10-06T09:31:51.356Z,1006.20
2018-10-06T09:32:51.370Z,1006.20
2018-10-06T09:33:51.396Z,1006.17
2018-10-06T09:34:51.424Z,1006.19
2018-10-06T09:35:51.436Z,1006.21
2018-10-06T09:36:51.461Z,1006.22
2018-10-06T09:37:51.475Z,1006.20
2018-10-06T09:38:51.501Z,1006.25
2018-10-06T09:39:51.526Z,1006.21
2018-10-06T09:40:51.544Z,1006.25
2018-10-06T09:41:51.642Z,1006.22
2018-10-06T09:42:51.613Z,1006.21
2018-10-06T09:43:51.607Z,1006.21
2018-10-06T09:44:51.645Z,1006.15
2018-10-06T09:45:51.649Z,1006.15
2018-10-06T09:46:51.671Z,1006.12
2018-10-06T09:47:51.685Z,1006.11
2018-10-06T09:48:51.711Z,1006.14
2018-10-06T09:49:51.736Z,1006.13
2018-10-06T09:50:51.751Z,1006.18
2018-10-06T09:51:51.776Z,1006.15
2018-10-06T09:52:51.802Z,1006.19
2018-10-06T09:53:51.887Z,1006.14
2018-10-06T09:54:51.841Z,1006.12
2018-10-06T09:55:51.856Z,1006.13
2018-10-06T09:56:51.882Z,1006.14
2018-10-06T09:57:51.910Z,1006.09
2018-10-06T09:58:51.942Z,1006.13
2018-10-06T09:59:51.946Z,1006.14
2018-10-06T10:00:51.975Z,1006.11
2018-10-06T10:01:51.986Z,1006.15
2018-10-06T10:02:52.020Z,1006.12
2018-10-06T10:03:52.027Z,1006.10
2018-10-06T10:04:52.051Z,1006.12
2018-10-06T10:05:52.168Z,1006.08
2018-10-06T10:06:52.091Z,1006.04
2018-10-06T10:07:52.159Z,1005.97
2018-10-06T10:08:52.144Z,1005.98
2018-10-06T10:09:52.178Z,1006.01
2018-10-06T10:10:52.183Z,1005.96
2018-10-06T10:11:52.222Z,1005.98
2018-10-06T10:12:52.223Z,1005.98
2018-10-06T10:13:52.249Z,1005.96
2018-10-06T10:14:52.275Z,1005.97
2018-10-06T10:15:52.288Z,1005.91
2018-10-06T10:16:52.346Z,1005.92
2018-10-06T10:17:52.502Z,1005.88
2018-10-06T10:18:52.357Z,1005.89
2018-10-06T10:19:52.380Z,1005.90
2018-10-06T10:20:52.406Z,1005.83
2018-10-06T10:21:52.490Z,1005.85
2018-10-06T10:22:52.474Z,1005.88
2018-10-06T10:23:52.563Z,1005.82
2018-10-06T10:24:52.486Z,1005.83
2018-10-06T10:25:52.511Z,1005.82
2018-10-06T10:26:52.538Z,1005.83
2018-10-06T10:27:52.550Z,1005.80
2018-10-06T10:28:52.656Z,1005.82
2018-10-06T10:29:52.603Z,1005.84
2018-10-06T10:30:52.620Z,1005.81
2018-10-06T10:31:52.643Z,1005.79
2018-10-06T10:32:52.668Z,1005.78
2018-10-06T10:33:52.686Z,1005.76
2018-10-06T10:34:52.707Z,1005.69
2018-10-06T10:35:52.736Z,1005.71
2018-10-06T10:36:52.760Z,1005.68
2018-10-06T10:37:52.773Z,1005.67
2018-10-06T10:38:52.801Z,1005.68
2018-10-06T10:39:52.833Z,1005.66
2018-10-06T10:40:52.838Z,1005.62
2018-10-06T10:41:52.865Z,1005.64
2018-10-06T10:42:52.891Z,1005.64
2018-10-06T10:43:52.938Z,1005.65
2018-10-06T10:44:52.930Z,1005.61
2018-10-06T10:45:52.957Z,1005.64
2018-10-06T10:46:52.986Z,1005.64
2018-10-06T10:47:52.997Z,1005.63
2018-10-06T10:48:53.021Z,1005.67
2018-10-06T10:49:53.048Z,1005.59
2018-10-06T10:50:53.138Z,1005.60
2018-10-06T10:51:53.088Z,1005.68
2018-10-06T10:52:53.113Z,1005.62
2018-10-06T10:53:53.140Z,1005.63
2018-10-06T10:54:53.152Z,1005.54
2018-10-06T10:55:53.180Z,1005.59
2018-10-06T10:56:53.204Z,1005.60
2018-10-06T10:57:53.300Z,1005.57
2018-10-06T10:58:53.245Z,1005.56
2018-10-06T10:59:53.448Z,1005.59
2018-10-06T11:00:53.297Z,1005.62
2018-10-06T11:01:53.310Z,1005.58
2018-10-06T11:02:53.340Z,1005.56
2018-10-06T11:03:53.372Z,1005.53
2018-10-06T11:04:53.426Z,1005.54
2018-10-06T11:05:53.401Z,1005.56
2018-10-06T11:06:53.427Z,1005.55
2018-10-06T11:07:53.453Z,1005.57
2018-10-06T11:08:53.468Z,1005.52
2018-10-06T11:09:53.492Z,1005.52
2018-10-06T11:10:53.519Z,1005.48
2018-10-06T11:11:53.545Z,1005.49
2018-10-06T11:12:53.562Z,1005.46
2018-10-06T11:13:53.585Z,1005.45
2018-10-06T11:14:53.610Z,1005.38
2018-10-06T11:15:53.636Z,1005.34
2018-10-06T11:16:53.650Z,1005.33
2018-10-06T11:17:53.675Z,1005.36
2018-10-06T11:18:53.701Z,1005.33
2018-10-06T11:19:53.740Z,1005.33
2018-10-06T11:20:53.741Z,1005.32
2018-10-06T11:21:53.768Z,1005.36
2018-10-06T11:22:53.794Z,1005.31
2018-10-06T11:23:53.820Z,1005.28
2018-10-06T11:24:53.858Z,1005.28
2018-10-06T11:25:53.858Z,1005.28
2018-10-06T11:26:53.884Z,1005.31
2018-10-06T11:27:53.924Z,1005.25
2018-10-06T11:28:53.924Z,1005.17
2018-10-06T11:29:53.950Z,1005.20
2018-10-06T11:30:53.976Z,1005.17
2018-10-06T11:31:54.002Z,1005.16
2018-10-06T11:32:54.017Z,1005.14
2018-10-06T11:33:54.055Z,1005.16
2018-10-06T11:34:54.070Z,1005.14
2018-10-06T11:35:54.094Z,1005.11
2018-10-06T11:36:54.126Z,1005.08
2018-10-06T11:37:54.241Z,1005.10
2018-10-06T11:38:54.163Z,1005.09
2018-10-06T11:39:54.185Z,1005.06
2018-10-06T11:40:54.211Z,1005.04
2018-10-06T11:41:54.248Z,1005.01
2018-10-06T11:42:54.251Z,1005.02
2018-10-06T11:43:54.277Z,1005.03
2018-10-06T11:44:54.303Z,1004.98
2018-10-06T11:45:54.328Z,1004.96
2018-10-06T11:46:54.342Z,1004.97
2018-10-06T11:47:54.368Z,1004.94
2018-10-06T11:48:54.395Z,1004.91
2018-10-06T11:49:54.439Z,1004.91
2018-10-06T11:50:54.449Z,1004.85
2018-10-06T11:51:54.459Z,1004.88
2018-10-06T11:52:54.485Z,1004.89
2018-10-06T11:53:54.511Z,1004.90
2018-10-06T11:54:54.537Z,1004.89
2018-10-06T11:55:54.563Z,1004.86
2018-10-06T11:56:54.589Z,1004.87
2018-10-06T11:57:54.604Z,1004.82
2018-10-06T11:58:54.630Z,1004.81
2018-10-06T11:59:54.687Z,1004.85
2018-10-06T12:00:54.681Z,1004.79
2018-10-06T12:01:54.709Z,1004.78
2018-10-06T12:02:54.733Z,1004.77
2018-10-06T12:03:54.747Z,1004.76
2018-10-06T12:04:54.771Z,1004.74
2018-10-06T12:05:54.867Z,1004.75